• Join FlightAware (Why Join?)
  • Login
  • US Flag 
04:26AM EDT


 

Airport Tracker/Info


-or-


 

Live Flight TrackerFlight Track Log ✈ AAL1459 ✈ 09-May-2013 ✈ KBOS - KORD

Flight Track Log - Related Links

Times and Time Zones

All times are in EDT time to prevent confusion due to time zone crossing. See the AAL1459 flight status page for this flight to view local times or setup timezone preferences in your user account.

Time Position Orientation Groundspeed Altitude Reporting Facility
EDT Latitude Longitude Course Direction KTS MPH feet Rate Location/Type
02:22PM 42.3667 -70.9833 304° West 168 193 600  Level KA90
02:24PM 42.3833 -70.8667 79° East 254 292 3,100 2,040 Climbing KA90
02:25PM 42.5416 -70.8041 340° North  Level FlightAware Approximate
02:25PM 42.4167 -70.8000 56° Northeast 297 342 5,000  Level KA90
02:26PM 42.6126 -70.8970 308° West  Level FlightAware Approximate
02:26PM 42.5108 -70.9022 321° Northwest 295 339 9,400  Level Boston Center
02:27PM 42.6667 -71.0134 300° West  Level FlightAware Approximate
02:27PM 42.5561 -71.0111 299° West 295 339 11,600  Level Boston Center
02:28PM 42.7168 -71.1336 304° West  Level FlightAware Approximate
02:28PM 42.5947 -71.1144 297° West 328 377 13,900  Level Boston Center
02:29PM 42.6400 -71.2464 295° West 399 459 16,600 2,400 Climbing Boston Center
02:30PM 42.6744 -71.3614 292° West 373 429 18,700 2,040 Climbing Boston Center
02:31PM 42.7217 -71.4961 296° West 379 436 20,700 1,800 Climbing Boston Center
02:32PM 42.7394 -71.6428 279° West 384 442 22,400 1,740 Climbing Boston Center
02:33PM 42.7592 -71.8011 280° West 406 467 24,200 1,800 Climbing Boston Center
02:34PM 42.7767 -71.9619 278° West 421 484 26,000 1,620 Climbing Boston Center
02:35PM 42.7939 -72.1261 278° West 435 501 27,500 1,440 Climbing Boston Center
02:36PM 42.8172 -72.2928 281° West 447 514 28,900 1,500 Climbing Boston Center
02:37PM 42.8339 -72.4656 278° West 458 527 30,500 1,560 Climbing Boston Center
02:38PM 42.8525 -72.6497 278° West 458 527 32,100 1,740 Climbing Boston Center
02:39PM 42.8686 -72.8197 277° West 458 527 34,000 1,500 Climbing Boston Center
02:41PM 42.8867 -73.0039 278° West 458 527 35,400 1,200 Climbing Boston Center
02:42PM 42.9044 -73.1714 278° West 452 520 36,700 960 Climbing Boston Center
02:43PM 42.9200 -73.3331 278° West 442 509 37,400 540 Climbing Boston Center
02:44PM 42.9333 -73.4894 277° West 437 503 38,000 240 Climbing Boston Center
02:45PM 42.9500 -73.6911 277° West 437 503 38,000 -60 Level Boston Center
02:46PM 42.9669 -73.8558 278° West 442 509 37,900  Descending Boston Center
02:47PM 42.9850 -74.0550 277° West 447 514 38,000  Climbing Boston Center
02:48PM 42.9992 -74.2200 277° West 447 514 38,000 -60 Level Boston Center
02:49PM 43.0167 -74.4222 277° West 447 514 37,900  Descending Boston Center
02:50PM 43.0303 -74.5875 276° West 447 514 38,000  Climbing Boston Center
02:51PM 43.0458 -74.7556 277° West 447 514 38,000 -60 Level Boston Center
02:52PM 43.0611 -74.9239 277° West 447 514 37,900 -60 Descending Boston Center
02:53PM 43.0756 -75.1092 276° West 447 514 37,900  Level Boston Center
02:54PM 43.0903 -75.2778 277° West 447 514 37,900  Level Boston Center
02:55PM 43.1028 -75.4461 276° West 447 514 37,900  Level Boston Center
02:56PM 43.1181 -75.6489 276° West 447 514 38,000  Climbing Boston Center
02:57PM 43.1319 -75.8147 277° West 447 514 38,000  Level Boston Center
02:59PM 43.1333 -76.0167 271° West 450 518 38,000  Level Toronto Center
02:59PM 43.1572 -76.1572 283° West 446 513 38,000 -120 Level Cleveland Center
03:00PM 43.1614 -76.3278 272° West 446 513 37,900 -60 Descending Cleveland Center
03:01PM 43.1614 -76.4958 270° West 441 507 37,900  Level Cleveland Center
03:02PM 43.1586 -76.6639 269° West 441 507 38,000  Climbing Cleveland Center
03:03PM 43.1583 -76.8433 270° West 435 501 38,000  Level Cleveland Center
03:04PM 43.1575 -77.0114 270° West 441 507 38,000  Level Cleveland Center
03:05PM 43.1583 -77.1764 270° West 441 507 38,000  Level Cleveland Center
03:06PM 43.1569 -77.3444 269° West 441 507 38,000  Level Cleveland Center
03:07PM 43.1531 -77.5097 268° West 441 507 38,000  Level Cleveland Center
03:08PM 43.1531 -77.6747 270° West 441 507 38,000  Level Cleveland Center
03:09PM 43.1508 -77.8342 269° West 441 507 38,000  Level Cleveland Center
03:10PM 43.1483 -77.9967 269° West 441 507 38,000  Level Cleveland Center
03:11PM 43.1456 -78.1561 269° West 436 502 38,000  Level Cleveland Center
03:12PM 43.1425 -78.3128 269° West 425 489 38,000  Level Cleveland Center
03:13PM 43.1411 -78.4606 269° West 425 489 38,000  Level Cleveland Center
03:14PM 43.1356 -78.6231 267° West 425 489 38,000  Level Cleveland Center
03:15PM 43.1297 -78.7853 267° West 425 489 38,000  Level Cleveland Center
03:16PM 43.1261 -78.9506 268° West 425 489 38,000  Level Cleveland Center
03:17PM 43.1167 -79.0000 255° West 430 495 38,000  Level Toronto Center
03:18PM 43.1167 -79.1833 270° West 430 495 38,000  Level Toronto Center
03:19PM 43.1000 -79.3333 261° West 430 495 38,000  Level Toronto Center
03:20PM 43.1000 -79.5000 270° West 430 495 38,000  Level Toronto Center
03:21PM 43.1000 -79.6500 270° West 420 483 38,000  Level Toronto Center
03:22PM 43.0833 -79.8167 262° West 420 483 38,000  Level Toronto Center
03:23PM 43.0833 -79.9833 270° West 410 472 38,000  Level Toronto Center
03:24PM 43.0667 -80.1333 261° West 410 472 38,000  Level Toronto Center
03:25PM 43.0667 -80.2667 270° West 410 472 38,000  Level Toronto Center
03:26PM 43.0667 -80.4333 270° West 410 472 38,000  Level Toronto Center
03:27PM 43.0500 -80.5833 261° West 410 472 38,000  Level Toronto Center
03:28PM 43.0500 -80.7500 270° West 410 472 38,000  Level Toronto Center
03:29PM 43.0333 -80.9167 262° West 410 472 38,000  Level Toronto Center
03:30PM 43.0167 -81.0500 260° West 410 472 38,000  Level Toronto Center
03:32PM 43.0328 -81.3528 274° West 450 518 38,000  Level Cleveland Center
03:33PM 43.0297 -81.5061 268° West 431 496 38,000  Level Cleveland Center
03:34PM 43.0283 -81.6653 269° West 419 482 38,000  Level Cleveland Center
03:35PM 43.0225 -81.8214 267° West 414 476 38,000  Level Cleveland Center
03:36PM 43.0000 -82.0000 260° West 410 472 38,000  Level Toronto Center
03:37PM 43.0000 -82.1667 270° West 410 472 38,000  Level Toronto Center
03:38PM 43.0000 -82.3000 270° West 420 483 38,000  Level Toronto Center
03:39PM 43.0000 -82.4833 270° West 410 472 38,000 -420 Level Toronto Center
03:40PM 43.0000 -82.6167 270° West 410 472 37,200 -840 Descending Toronto Center
03:41PM 43.0006 -82.7519 270° West 407 468 36,500 -900 Descending Cleveland Center
03:42PM 42.9953 -82.9053 267° West 402 463 35,600 -960 Descending Cleveland Center
03:43PM 42.9861 -83.0553 265° West 402 463 34,600 -840 Descending Cleveland Center
03:44PM 42.9742 -83.2081 264° West 402 463 34,000 -420 Descending Cleveland Center
03:45PM 42.9622 -83.3636 264° West 407 468 33,800 -600 Descending Cleveland Center
03:46PM 42.9522 -83.5136 265° West 407 468 32,900 -900 Descending Cleveland Center
03:47PM 42.9400 -83.6689 264° West 407 468 32,000 -960 Descending Cleveland Center
03:48PM 42.9272 -83.8300 264° West 412 474 31,000 -1,020 Descending Cleveland Center
03:49PM 42.9144 -83.9853 264° West 417 480 30,000 -1,020 Descending Cleveland Center
03:50PM 42.9036 -84.1378 265° West 417 480 29,000 -1,020 Descending Cleveland Center
03:51PM 42.8925 -84.2875 264° West 412 474 28,000 -660 Descending Cleveland Center
03:52PM 42.8817 -84.4311 264° West 405 466 27,700 -480 Descending Cleveland Center
03:52PM 42.8781 -84.4603 260° West 391 450 27,400 -1,440 Descending Chicago Center
03:53PM 42.8661 -84.5778 262° West 400 460 26,300 -480 Descending Cleveland Center
03:55PM 42.8378 -84.9272 264° West 392 451 26,000 -120 Descending Chicago Center
03:56PM 42.8250 -85.0769 263° West 397 457 26,000  Level Chicago Center
03:57PM 42.8117 -85.2269 263° West 400 460 26,000  Level Chicago Center
03:58PM 42.7978 -85.3783 263° West 401 461 26,000  Level Chicago Center
03:59PM 42.7814 -85.5311 262° West 407 468 26,000 -540 Level Chicago Center
04:00PM 42.7536 -85.6806 256° West 406 467 25,000 -1,140 Descending Chicago Center
04:01PM 42.7269 -85.8281 256° West 402 463 23,700 -1,440 Descending Chicago Center
04:02PM 42.6953 -86.0008 256° West 391 450 22,100 -1,440 Descending Chicago Center
04:03PM 42.6703 -86.1431 257° West 386 444 20,800 -1,020 Descending Chicago Center
04:04PM 42.6442 -86.2819 256° West 379 436 20,000 -600 Descending Chicago Center
04:05PM 42.6175 -86.4164 255° West 370 426 19,600 -1,080 Descending Chicago Center
04:06PM 42.5917 -86.5542 256° West 376 433 17,800 -1,800 Descending Chicago Center
04:07PM 42.5667 -86.6858 256° West 364 419 16,000 -1,800 Descending Chicago Center
04:09PM 42.5381 -86.8133 253° West 358 412 14,200 -1,980 Descending Chicago Center
04:10PM 42.4981 -86.9603 250° West 351 404 12,000 -1,620 Descending Chicago Center
04:11PM 42.4647 -87.0744 248° West 327 376 10,900 -1,020 Descending Chicago Center
04:12PM 42.4361 -87.1756 249° West 296 341 10,000 -960 Descending Chicago Center
04:13PM 42.4106 -87.2714 250° West 278 320 9,000 -720 Descending Chicago Center
04:14PM 42.3847 -87.3661 250° West 270 311 8,600 -960 Descending Chicago Center
04:15PM 42.3592 -87.4675 251° West 265 305 7,100 -780 Descending Chicago Center
04:16PM 42.3108 -87.5486 231° Southwest 259 298 7,000 -60 Descending Chicago Center
04:17PM 42.2600 -87.6050 219° Southwest 239 275 7,000 -420 Level Chicago Center
04:18PM 42.2150 -87.6553 220° Southwest 215 247 6,200 -960 Descending Chicago Center
04:19PM 42.1689 -87.7058 219° Southwest 214 246 5,100 -1,080 Descending Chicago Center